D/T METAR WX W/DIR W/SPE G/SPE TEMP DEWP
16/01/19 03:50 EGDR 160350Z 22016G26KT 9999 FEW008 SCT012 OVC040 10/08 Q1009 GRN SW (220°) 18.4mph 29.9mph 10°C 8°C
16/01/19 02:50 EGDR 160250Z 22016G26KT 9999 FEW007 SCT012 OVC035 10/08 Q1010 REDZ GRN SW (220°) 18.4mph 29.9mph 10°C 8°C
16/01/19 01:50 EGDR 160150Z 22018G29KT 5000 -DZ FEW006 SCT010 BKN022 09/08 Q1011 GRN -DZ SW (220°) 20.7mph 33.4mph 9°C 8°C
16/01/19 00:50 EGDR 160050Z 22017G27KT 9999 FEW014 OVC016 10/07 Q1012 WHT SW (220°) 19.6mph 31.1mph 10°C 7°C
15/01/19 23:50 EGDR 152350Z 21015G25KT 9999 SCT012 BKN016 OVC030 10/07 Q1013 GRN SSW (210°) 17.3mph 28.8mph 10°C 7°C
15/01/19 22:50 EGDR 152250Z 21014G27KT 9999 FEW008 SCT012 OVC022 10/07 Q1014 GRN SSW (210°) 16.1mph 31.1mph 10°C 7°C
15/01/19 21:50 EGDR 152150Z 21016KT 9999 SCT008 OVC012 09/07 Q1015 RERA GRN SSW (210°) 18.4mph 9°C 7°C
15/01/19 20:50 EGDR 152050Z 22014G26KT 9999 -RA FEW005 SCT007 OVC012 09/07 Q1016 GRN -RA SW (220°) 16.1mph 29.9mph 9°C 7°C
15/01/19 19:50 EGDR 151950Z 22016G27KT 9999 FEW005 SCT008 OVC015 09/08 Q1016 GRN SW (220°) 18.4mph 31.1mph 9°C 8°C
15/01/19 18:50 EGDR 151850Z 21013KT 9999 SCT005 BKN011 09/08 Q1017 YLO1 SSW (210°) 15.0mph 9°C 8°C
15/01/19 17:50 EGDR 151750Z 22014KT 9999 BKN008 BKN020 09/07 Q1017 REDZ GRN SW (220°) 16.1mph 9°C 7°C
15/01/19 16:50 EGDR 151650Z 22012KT 9999 -DZ BKN008 SCT020 BKN028 09/07 Q1018 GRN TEMPO 4000 RADZ SCT006 YLO1 -DZ SW (220°) 13.8mph 9°C 7°C
15/01/19 16:22 EGDR 151622Z 22014KT 9999 VCSH FEW004 BKN008 BKN028 09/08 Q1018 GRN TEMPO 4000 RADZ SCT006 YLO1 VCSH SW (220°) 16.1mph 9°C 8°C
15/01/19 15:50 EGDR 151550Z 22012KT 6000 -DZ FEW004 BKN007 BKN020 09/08 Q1019 GRN TEMPO 4000 RADZ SCT006 YLO1 -DZ SW (220°) 13.8mph 9°C 8°C
15/01/19 15:20 EGDR 151520Z 23012KT 9999 VCSH FEW004 SCT020 BKN028 09/08 Q1019 WHT TEMPO 6000 -RADZ SCT008 GRN VCSH SW (230°) 13.8mph 9°C 8°C
15/01/19 14:50 EGDR 151450Z 23010KT 9999 FEW004 SCT007 BKN025 09/09 Q1019 REDZ GRN NOSIG SW (230°) 11.5mph 9°C 9°C
15/01/19 14:22 EGDR 151422Z 23012G23KT 3800 DZ FEW004 BKN007 BKN020 09/08 Q1020 GRN NOSIG DZ SW (230°) 13.8mph 26.5mph 9°C 8°C
15/01/19 13:50 EGDR 151350Z 22010KT 9999 -DZ FEW005 SCT007 BKN020 10/08 Q1020 GRN NOSIG -DZ SW (220°) 11.5mph 10°C 8°C
15/01/19 13:21 EGDR 151321Z 23010KT 9999 SCT008 BKN020 BKN028 10/07 Q1020 GRN NOSIG SW (230°) 11.5mph 10°C 7°C
15/01/19 12:50 EGDR 151250Z 24006KT 9999 FEW008 BKN020 BKN028 10/06 Q1021 WHT TEMPO -RADZ SCT010 GRN WSW (240°) 6.9mph 10°C 6°C
15/01/19 12:21 EGDR 151221Z 25007KT 9999 FEW008 BKN020 BKN028 10/06 Q1021 WHT TEMPO -RADZ SCT010 GRN WSW (250°) 8.1mph 10°C 6°C
15/01/19 11:25 EGDR 151125Z 25006KT 9999 FEW008 SCT016 BKN020 10/06 Q1022 WHT TEMPO -RADZ SCT010 WSW (250°) 6.9mph 10°C 6°C
15/01/19 10:50 EGDR 151050Z 26007KT 9999 -RADZ FEW008 SCT016 BKN020 09/07 Q1022 WHT TEMPO -RADZ SCT010 -RA -DZ W (260°) 8.1mph 9°C 7°C
15/01/19 10:23 EGDR 151023Z 26006KT 9999 -DZ FEW008 SCT016 BKN020 09/07 Q1022 WHT TEMPO -RADZ SCT010 -DZ W (260°) 6.9mph 9°C 7°C
15/01/19 09:50 EGDR 150950Z 22006KT 9999 VCSH FEW008 BKN020 09/08 Q1022 WHT NOSIG VCSH SW (220°) 6.9mph 9°C 8°C
15/01/19 09:23 EGDR 150923Z 23010KT 9999 VCSH FEW010 SCT015 09/07 Q1022 WHT NOSIG VCSH SW (230°) 11.5mph 9°C 7°C
15/01/19 08:50 EGDR 150850Z 23008KT 9999 FEW008 SCT012 BKN020 08/07 Q1022 GRN TEMPO SCT015 SW (230°) 9.2mph 8°C 7°C
15/01/19 07:50 EGDR 150750Z AUTO 23007KT 9999 // FEW012/// BKN024/// 08/07 Q1022 SW (230°) 8.1mph 8°C 7°C
15/01/19 07:23 EGDR 150723Z 22010KT 8000 RADZ FEW008 SCT012 BKN018 08/07 Q1023 GRN NOSIG RA DZ SW (220°) 11.5mph 8°C 7°C
15/01/19 06:50 EGDR 150650Z 24006KT 9999 SCT015 BKN020 08/07 Q1023 RERA WHT TEMPO 6000 -RADZ SCT010 WSW (240°) 6.9mph 8°C 7°C
15/01/19 06:24 EGDR 150624Z 24008KT 9999 -RADZ FEW008 SCT015 BKN020 08/07 Q1023 WHT NOSIG -RA -DZ WSW (240°) 9.2mph 8°C 7°C
15/01/19 05:50 EGDR 150550Z 26005KT 9999 SCT015 BKN020 09/06 Q1023 REDZ WHT NOSIG W (260°) 5.8mph 9°C 6°C
15/01/19 04:50 EGDR 150450Z 24006KT 9999 -DZ FEW006 SCT010 OVC016 08/07 Q1023 GRN NOSIG -DZ WSW (240°) 6.9mph 8°C 7°C
15/01/19 03:50 EGDR 150350Z 25006KT 9999 FEW012 OVC020 08/06 Q1024 REDZ WHT WSW (250°) 6.9mph 8°C 6°C
15/01/19 02:50 EGDR 150250Z 25006KT 9999 -DZ SCT010 OVC024 08/07 Q1024 GRN -DZ WSW (250°) 6.9mph 8°C 7°C
15/01/19 01:50 EGDR 150150Z 26006KT 9999 -DZ SCT010 SCT016 OVC020 09/05 Q1025 GRN -DZ W (260°) 6.9mph 9°C 5°C
15/01/19 00:50 EGDR 150050Z 26006KT 9999 FEW016 SCT022 OVC023 09/05 Q1025 WHT W (260°) 6.9mph 9°C 5°C
14/01/19 23:50 EGDR 142350Z 26006KT 9999 SCT023 OVC026 08/05 Q1025 WHT W (260°) 6.9mph 8°C 5°C
14/01/19 22:50 EGDR 142250Z 26004KT 9999 SCT023 OVC024 08/04 Q1026 WHT NOSIG W (260°) 4.6mph 8°C 4°C
14/01/19 22:21 EGDR 142221Z 27004KT 9999 SCT023 OVC025 08/04 Q1026 WHT NOSIG W (270°) 4.6mph 8°C 4°C
14/01/19 21:50 EGDR 142150Z 28006KT 9999 SCT023 OVC025 08/04 Q1026 WHT NOSIG W (280°) 6.9mph 8°C 4°C
14/01/19 21:23 EGDR 142123Z 28005KT 9999 SCT023 OVC025 08/04 Q1026 WHT NOSIG W (280°) 5.8mph 8°C 4°C
14/01/19 20:50 EGDR 142050Z 26003KT 9999 SCT023 OVC025 08/04 Q1026 WHT NOSIG W (260°) 3.5mph 8°C 4°C
14/01/19 20:23 EGDR 142023Z 26002KT 9999 FEW023 SCT024 OVC026 08/04 Q1026 WHT NOSIG W (260°) 2.3mph 8°C 4°C
14/01/19 19:50 EGDR 141950Z 29003KT 9999 FEW024 SCT025 OVC028 08/04 Q1026 BLU BECMG SCT022 WHT WNW (290°) 3.5mph 8°C 4°C
14/01/19 19:27 EGDR 141927Z 31005KT 9999 SCT025 OVC030 08/04 Q1026 BLU NOSIG NW (310°) 5.8mph 8°C 4°C
14/01/19 18:50 EGDR 141850Z 29004KT 9999 SCT026 BKN030 08/04 Q1026 BLU NOSIG WNW (290°) 4.6mph 8°C 4°C
14/01/19 18:22 EGDR 141822Z 30005KT 9999 BKN026 BKN030 08/04 Q1026 BLU NOSIG WNW (300°) 5.8mph 8°C 4°C
14/01/19 17:50 EGDR 141750Z 28002KT 9999 BKN026 BKN030 08/04 Q1026 BLU NOSIG W (280°) 2.3mph 8°C 4°C
14/01/19 16:50 EGDR 141650Z 35004KT 9999 SCT026 BKN030 08/04 Q1026 BLU BECMG SCT022 WHT N (350°) 4.6mph 8°C 4°C
14/01/19 16:23 EGDR 141623Z 35004KT 9999 BKN026 BKN030 09/04 Q1025 BLU BECMG SCT022 WHT N (350°) 4.6mph 9°C 4°C
14/01/19 15:50 EGDR 141550Z 34004KT 9999 FEW028 BKN032 09/04 Q1025 BLU NOSIG NNW (340°) 4.6mph 9°C 4°C
14/01/19 15:21 EGDR 141521Z 32005KT 9999 FEW028 BKN032 09/03 Q1025 BLU NOSIG NW (320°) 5.8mph 9°C 3°C
14/01/19 14:50 EGDR 141450Z 33006KT 9999 BKN032 09/03 Q1025 BLU NOSIG NNW (330°) 6.9mph 9°C 3°C
14/01/19 14:20 EGDR 141420Z 33007KT 9999 BKN032 09/03 Q1025 BLU NOSIG NNW (330°) 8.1mph 9°C 3°C
14/01/19 13:50 EGDR 141350Z 34008KT 9999 BKN032 09/03 Q1025 BLU NOSIG NNW (340°) 9.2mph 9°C 3°C
14/01/19 13:20 EGDR 141320Z 34007KT 9999 BKN032 09/03 Q1025 BLU NOSIG NNW (340°) 8.1mph 9°C 3°C
14/01/19 12:50 EGDR 141250Z 34008KT 9999 BKN032 09/04 Q1026 BLU NOSIG NNW (340°) 9.2mph 9°C 4°C
14/01/19 12:24 EGDR 141224Z 31009KT 9999 BKN032 09/03 Q1025 BLU NOSIG NW (310°) 10.4mph 9°C 3°C
14/01/19 11:50 EGDR 141150Z 33009KT 9999 BKN032 09/03 Q1026 BLU NOSIG NNW (330°) 10.4mph 9°C 3°C
14/01/19 11:26 EGDR 141126Z 32006KT 9999 BKN032 09/03 Q1026 BLU NOSIG NW (320°) 6.9mph 9°C 3°C
14/01/19 10:50 EGDR 141050Z 34007KT 9999 BKN032 09/03 Q1026 BLU NOSIG NNW (340°) 8.1mph 9°C 3°C
14/01/19 09:50 EGDR 140950Z 32006KT 9999 BKN032 09/03 Q1026 BLU NOSIG NW (320°) 6.9mph 9°C 3°C
14/01/19 09:23 EGDR 140923Z 34010KT 9999 BKN030 09/02 Q1025 BLU NOSIG NNW (340°) 11.5mph 9°C 2°C
14/01/19 08:50 EGDR 140850Z 35008KT 9999 FEW025 BKN030 09/03 Q1025 BLU NOSIG N (350°) 9.2mph 9°C 3°C
14/01/19 08:21 EGDR 140821Z 35008KT 9999 FEW025 BKN030 09/03 Q1025 BLU NOSIG N (350°) 9.2mph 9°C 3°C
14/01/19 07:50 EGDR 140750Z 34010G20KT 9999 FEW025 BKN030 08/02 Q1024 BLU NOSIG NNW (340°) 11.5mph 23.0mph 8°C 2°C
14/01/19 07:20 EGDR 140720Z 33012KT 9999 FEW025 BKN030 09/02 Q1024 BLU NOSIG NNW (330°) 13.8mph 9°C 2°C
14/01/19 06:50 EGDR 140650Z 33006KT 9999 FEW025 BKN030 09/03 Q1024 BLU NOSIG NNW (330°) 6.9mph 9°C 3°C
14/01/19 05:50 EGDR 140550Z 32008KT 9999 FEW025 BKN030 09/03 Q1024 BLU NOSIG NW (320°) 9.2mph 9°C 3°C
14/01/19 04:50 EGDR 140450Z AUTO 34011KT 9999 // OVC030/// 09/03 Q1023 NNW (340°) 12.7mph 9°C 3°C
14/01/19 03:50 EGDR 140350Z 34010KT 9999 FEW025 OVC030 09/04 Q1023 BLU NNW (340°) 11.5mph 9°C 4°C
14/01/19 02:50 EGDR 140250Z 34008KT 9999 OVC028 09/04 Q1023 BLU NNW (340°) 9.2mph 9°C 4°C
14/01/19 01:50 EGDR 140150Z AUTO 35015KT 9999 // OVC027/// 09/04 Q1023 N (350°) 17.3mph 9°C 4°C
14/01/19 00:50 EGDR 140050Z AUTO 33011KT 9999 // FEW020/// OVC024/// 10/06 Q1022 NNW (330°) 12.7mph 10°C 6°C
13/01/19 23:50 EGDR 132350Z AUTO 32013G23KT 9999 // BKN022/// 10/07 Q1022 NW (320°) 15.0mph 26.5mph 10°C 7°C
13/01/19 22:50 EGDR 132250Z AUTO 33020KT 9999 // SCT018/// 10/07 Q1021 NNW (330°) 23.0mph 10°C 7°C
13/01/19 21:50 EGDR 132150Z AUTO 32024KT 9999 // FEW012/// BKN023/// 11/08 Q1021 NW (320°) 27.6mph 11°C 8°C
13/01/19 20:50 EGDR 132050Z AUTO 31025KT 9999 // BKN012/// 11/09 Q1020 NW (310°) 28.8mph 11°C 9°C
13/01/19 19:50 EGDR 131950Z AUTO 30024KT 9999 // BKN010/// 10/09 Q1020 WNW (300°) 27.6mph 10°C 9°C
13/01/19 18:50 EGDR 131850Z AUTO 31022G35KT 9999 // SCT005/// OVC013/// 10/09 Q1020 NW (310°) 25.3mph 40.3mph 10°C 9°C
13/01/19 17:50 EGDR 131750Z AUTO 30025KT 9999 // OVC004/// 10/09 Q1020 WNW (300°) 28.8mph 10°C 9°C
13/01/19 16:50 EGDR 131650Z AUTO 31025KT 9999 // OVC005/// 10/09 Q1020 NW (310°) 28.8mph 10°C 9°C
13/01/19 15:50 EGDR 131550Z AUTO 29016KT 9999 // BKN010/// 10/08 Q1020 WNW (290°) 18.4mph 10°C 8°C
13/01/19 14:50 EGDR 131450Z AUTO 28010KT 9999 // OVC009/// 10/08 Q1021 W (280°) 11.5mph 10°C 8°C
13/01/19 13:50 EGDR 131350Z AUTO 27016G30KT 9999 // OVC011/// 10/08 Q1021 W (270°) 18.4mph 34.5mph 10°C 8°C
13/01/19 12:50 EGDR 131250Z AUTO 26011KT 9999 // OVC011/// 11/08 Q1022 W (260°) 12.7mph 11°C 8°C
13/01/19 11:50 EGDR 131150Z AUTO 27015KT 9999 // OVC011/// 11/08 Q1023 W (270°) 17.3mph 11°C 8°C
13/01/19 10:50 EGDR 131050Z AUTO 27015KT 9999 // OVC012/// 10/08 Q1023 W (270°) 17.3mph 10°C 8°C
13/01/19 09:50 EGDR 130950Z AUTO 29021KT 9999 // OVC010/// 10/08 Q1024 WNW (290°) 24.2mph 10°C 8°C
13/01/19 08:50 EGDR 130850Z AUTO 28020KT 9999 // OVC010/// 10/08 Q1024 W (280°) 23.0mph 10°C 8°C
13/01/19 07:50 EGDR 130750Z AUTO 28022KT 9999 // OVC006/// 09/08 Q1024 W (280°) 25.3mph 9°C 8°C
13/01/19 06:50 EGDR 130650Z AUTO 28019KT 9999 // BKN009/// 09/08 Q1024 W (280°) 21.9mph 9°C 8°C
13/01/19 05:50 EGDR 130550Z AUTO 28024KT 8000 // OVC005/// 09/08 Q1024 W (280°) 27.6mph 9°C 8°C
13/01/19 04:50 EGDR 130450Z AUTO 28023KT 9999 // BKN006/// 09/08 Q1024 W (280°) 26.5mph 9°C 8°C
13/01/19 03:50 EGDR 130350Z AUTO 27016KT 9999 // BKN006/// 09/08 Q1025 W (270°) 18.4mph 9°C 8°C
13/01/19 02:50 EGDR 130250Z AUTO 27010KT 9999 // FEW002/// BKN005/// BKN170/// 09/09 Q1026 W (270°) 11.5mph 9°C 9°C
13/01/19 01:50 EGDR 130150Z AUTO 30013KT 2500 // OVC002/// 09/09 Q1026 WNW (300°) 15.0mph 9°C 9°C
13/01/19 00:50 EGDR 130050Z AUTO 30015KT 9000 // OVC002/// 09/09 Q1026 WNW (300°) 17.3mph 9°C 9°C
12/01/19 23:50 EGDR 122350Z AUTO 30015KT 9000 // OVC003/// 09/09 Q1027 WNW (300°) 17.3mph 9°C 9°C
12/01/19 22:50 EGDR 122250Z AUTO 24008KT 9999 // OVC006/// 10/09 Q1027 WSW (240°) 9.2mph 10°C 9°C
12/01/19 21:50 EGDR 122150Z AUTO 26006KT 9999 // BKN006/// 10/09 Q1027 W (260°) 6.9mph 10°C 9°C
12/01/19 20:50 EGDR 122050Z AUTO 28007KT 9999 // SCT008/// SCT180/// 09/08 Q1028 W (280°) 8.1mph 9°C 8°C
12/01/19 19:50 EGDR 121950Z AUTO 32014KT 9999 // FEW160/// 10/08 Q1028 NW (320°) 16.1mph 10°C 8°C
12/01/19 18:50 EGDR 121850Z AUTO 30012KT 9999 // FEW008/// BKN160/// 10/08 Q1027 WNW (300°) 13.8mph 10°C 8°C
12/01/19 17:50 EGDR 121750Z AUTO 31014G24KT 9999 // FEW011/// OVC170/// 09/08 Q1028 NW (310°) 16.1mph 27.6mph 9°C 8°C
12/01/19 16:50 EGDR 121650Z AUTO 27009KT 9999 // BKN011/// SCT160/// 09/08 Q1027 W (270°) 10.4mph 9°C 8°C
12/01/19 15:50 EGDR 121550Z AUTO 29010KT 9999 // BKN012/// 10/08 Q1027 WNW (290°) 11.5mph 10°C 8°C
12/01/19 14:50 EGDR 121450Z AUTO 29013KT 9999 // FEW005/// BKN010/// BKN017/// 10/08 Q1028 WNW (290°) 15.0mph 10°C 8°C
12/01/19 13:50 EGDR 121350Z AUTO 30015KT 9999 // BKN006/// BKN018/// 10/09 Q1028 WNW (300°) 17.3mph 10°C 9°C
12/01/19 12:50 EGDR 121250Z AUTO 29019KT 5000 // OVC005/// 10/09 Q1028 WNW (290°) 21.9mph 10°C 9°C
12/01/19 11:50 EGDR 121150Z AUTO 29019KT 8000 // BKN006/// 10/09 Q1029 WNW (290°) 21.9mph 10°C 9°C
12/01/19 10:50 EGDR 121050Z AUTO 29015KT 9999 // OVC005/// 10/09 Q1029 WNW (290°) 17.3mph 10°C 9°C
12/01/19 09:50 EGDR 120950Z AUTO 30017KT 9999 // BKN004/// 09/09 Q1029 WNW (300°) 19.6mph 9°C 9°C
12/01/19 08:50 EGDR 120850Z AUTO 28012KT 9999 // BKN005/// 09/09 Q1030 W (280°) 13.8mph 9°C 9°C
12/01/19 07:50 EGDR 120750Z AUTO 28014KT 9999 // BKN007/// BKN015/// 09/08 Q1029 W (280°) 16.1mph 9°C 8°C
12/01/19 06:50 EGDR 120650Z AUTO 29014KT 9999 // BKN005/// 09/08 Q1030 WNW (290°) 16.1mph 9°C 8°C
12/01/19 05:50 EGDR 120550Z AUTO 27011KT 9999 // BKN004/// 09/08 Q1030 W (270°) 12.7mph 9°C 8°C
12/01/19 04:50 EGDR 120450Z AUTO 28014KT 9999 // BKN005/// 08/08 Q1031 W (280°) 16.1mph 8°C 8°C
12/01/19 03:50 EGDR 120350Z AUTO 28013KT 9999 // BKN006/// SCT018/// 08/08 Q1031 W (280°) 15.0mph 8°C 8°C
12/01/19 02:50 EGDR 120250Z AUTO 28011KT 6000 // BKN007/// SCT015/// 08/08 Q1032 W (280°) 12.7mph 8°C 8°C
12/01/19 01:50 EGDR 120150Z AUTO 27009KT 9999 // FEW004/// BKN014/// 08/07 Q1032 W (270°) 10.4mph 8°C 7°C
12/01/19 00:50 EGDR 120050Z AUTO 26010KT 9999 // SCT021/// 08/07 Q1032 W (260°) 11.5mph 8°C 7°C
11/01/19 23:50 EGDR 112350Z AUTO 29008KT 9999 // BKN038/// 08/07 Q1033 WNW (290°) 9.2mph 8°C 7°C
11/01/19 22:50 EGDR 112250Z AUTO 28007KT 9999 // FEW011/// BKN034/// 08/07 Q1034 W (280°) 8.1mph 8°C 7°C
11/01/19 21:50 EGDR 112150Z AUTO 31005KT 9999 // FEW012/// SCT020/// BKN030/// 08/06 Q1034 NW (310°) 5.8mph 8°C 6°C
11/01/19 20:50 EGDR 112050Z AUTO 29008KT 9999 // BKN035/// 09/06 Q1034 WNW (290°) 9.2mph 9°C 6°C
11/01/19 19:50 EGDR 111950Z AUTO 31005KT 9999 // BKN040/// 08/04 Q1034 NW (310°) 5.8mph 8°C 4°C
11/01/19 18:50 EGDR 111850Z AUTO 34005KT 9999 // OVC036/// 09/04 Q1034 NNW (340°) 5.8mph 9°C 4°C
11/01/19 17:50 EGDR 111750Z AUTO 36007KT 9999 // OVC040/// 09/04 Q1034 N (360°) 8.1mph 9°C 4°C
11/01/19 16:50 EGDR 111650Z AUTO 34008KT 9999 // OVC040/// 09/06 Q1033 NNW (340°) 9.2mph 9°C 6°C
11/01/19 15:50 EGDR 111550Z AUTO 34006KT 9999 // OVC039/// 09/07 Q1033 NNW (340°) 6.9mph 9°C 7°C
11/01/19 14:50 EGDR 111450Z AUTO 34006KT 9999 // OVC041/// 09/07 Q1033 NNW (340°) 6.9mph 9°C 7°C
11/01/19 13:50 EGDR 111350Z 36006KT 9999 FEW018 OVC040 09/07 Q1033 BLU BECMG SCT019 WHT N (360°) 6.9mph 9°C 7°C
11/01/19 13:32 EGDR 111332Z 01006KT 9999 FEW016 OVC040 09/07 Q1033 BLU BECMG SCT019 WHT N (10°) 6.9mph 9°C 7°C
11/01/19 12:50 EGDR 111250Z 02006KT 9999 FEW016 OVC045 09/06 Q1034 RERA BLU BECMG SCT019 WHT NNE (20°) 6.9mph 9°C 6°C
11/01/19 12:20 EGDR 111220Z 03008KT 9999 FEW016 BKN045 08/06 Q1034 RERA BLU BECMG SCT019 WHT NNE (30°) 9.2mph 8°C 6°C
11/01/19 11:50 EGDR 111150Z 02010KT 9999 -RA FEW016 OVC035 08/07 Q1034 BLU BECMG SCT019 WHT -RA NNE (20°) 11.5mph 8°C 7°C
11/01/19 11:26 EGDR 111126Z 03008KT 9999 -RA FEW024 SCT026 OVC050 08/07 Q1034 BLU BECMG SCT019 WHT -RA NNE (30°) 9.2mph 8°C 7°C
11/01/19 10:50 EGDR 111050Z 03008KT 9999 FEW024 SCT026 BKN050 08/06 Q1034 RERA BLU BECMG SCT019 WHT NNE (30°) 9.2mph 8°C 6°C
11/01/19 10:20 EGDR 111020Z 04008KT 9999 FEW024 BKN050 08/06 Q1034 RERA BLU BECMG SCT019 WHT NE (40°) 9.2mph 8°C 6°C
11/01/19 09:50 EGDR 110950Z 03008KT 9999 -RA FEW026 BKN050 08/06 Q1034 BLU TEMPO 7000 SHRA BKN025 WHT -RA NNE (30°) 9.2mph 8°C 6°C
11/01/19 09:20 EGDR 110920Z 06004KT 9999 FEW026 BKN050 08/06 Q1033 BLU NOSIG ENE (60°) 4.6mph 8°C 6°C
11/01/19 08:50 EGDR 110850Z 01006KT 9999 FEW026 BKN045 08/06 Q1033 BLU TEMPO SCT024 WHT N (10°) 6.9mph 8°C 6°C